sensor_id;sensor_type;location;lat;lon;timestamp;P1;durP1;ratioP1;P2;durP2;ratioP2
45466;SDS011;31212;49.734;8.490;2022-11-18T00:01:56;6.50;;;3.00;;
45466;SDS011;31212;49.734;8.490;2022-11-18T00:04:23;10.85;;;2.90;;
45466;SDS011;31212;49.734;8.490;2022-11-18T00:06:50;8.75;;;3.03;;
45466;SDS011;31212;49.734;8.490;2022-11-18T00:09:16;5.47;;;2.38;;
45466;SDS011;31212;49.734;8.490;2022-11-18T00:11:43;4.22;;;2.15;;
45466;SDS011;31212;49.734;8.490;2022-11-18T00:14:28;2.85;;;1.90;;
45466;SDS011;31212;49.734;8.490;2022-11-18T00:16:55;2.83;;;1.92;;
45466;SDS011;31212;49.734;8.490;2022-11-18T00:19:24;4.78;;;2.40;;
45466;SDS011;31212;49.734;8.490;2022-11-18T00:21:52;8.00;;;2.20;;
45466;SDS011;31212;49.734;8.490;2022-11-18T00:24:19;4.93;;;2.00;;
45466;SDS011;31212;49.734;8.490;2022-11-18T00:26:46;6.22;;;2.67;;
45466;SDS011;31212;49.734;8.490;2022-11-18T00:29:14;3.63;;;1.92;;
45466;SDS011;31212;49.734;8.490;2022-11-18T00:31:42;3.63;;;2.17;;
45466;SDS011;31212;49.734;8.490;2022-11-18T00:34:09;4.68;;;1.83;;
45466;SDS011;31212;49.734;8.490;2022-11-18T00:36:37;3.05;;;1.73;;
45466;SDS011;31212;49.734;8.490;2022-11-18T00:39:04;5.43;;;2.20;;
45466;SDS011;31212;49.734;8.490;2022-11-18T00:41:31;4.88;;;2.20;;
45466;SDS011;31212;49.734;8.490;2022-11-18T00:44:11;5.22;;;2.42;;
45466;SDS011;31212;49.734;8.490;2022-11-18T00:46:38;3.53;;;2.53;;
45466;SDS011;31212;49.734;8.490;2022-11-18T00:49:06;5.15;;;3.33;;
45466;SDS011;31212;49.734;8.490;2022-11-18T00:51:33;5.82;;;2.70;;
45466;SDS011;31212;49.734;8.490;2022-11-18T00:53:59;2.35;;;1.85;;
45466;SDS011;31212;49.734;8.490;2022-11-18T00:56:26;4.60;;;2.47;;
45466;SDS011;31212;49.734;8.490;2022-11-18T00:58:53;4.03;;;2.47;;
45466;SDS011;31212;49.734;8.490;2022-11-18T01:01:20;6.00;;;3.80;;
45466;SDS011;31212;49.734;8.490;2022-11-18T01:03:46;4.57;;;2.55;;
45466;SDS011;31212;49.734;8.490;2022-11-18T01:06:14;3.03;;;2.35;;
45466;SDS011;31212;49.734;8.490;2022-11-18T01:08:41;2.60;;;1.83;;
45466;SDS011;31212;49.734;8.490;2022-11-18T01:11:07;3.17;;;2.05;;
45466;SDS011;31212;49.734;8.490;2022-11-18T01:13:52;9.50;;;3.53;;
45466;SDS011;31212;49.734;8.490;2022-11-18T01:16:19;4.38;;;2.38;;
45466;SDS011;31212;49.734;8.490;2022-11-18T01:18:47;3.50;;;1.92;;
45466;SDS011;31212;49.734;8.490;2022-11-18T01:21:15;4.93;;;2.58;;
45466;SDS011;31212;49.734;8.490;2022-11-18T01:23:41;4.45;;;2.10;;
45466;SDS011;31212;49.734;8.490;2022-11-18T01:26:09;1.67;;;1.58;;
45466;SDS011;31212;49.734;8.490;2022-11-18T01:28:37;2.92;;;2.33;;
45466;SDS011;31212;49.734;8.490;2022-11-18T01:31:05;4.07;;;2.22;;
45466;SDS011;31212;49.734;8.490;2022-11-18T01:33:33;2.50;;;1.50;;
45466;SDS011;31212;49.734;8.490;2022-11-18T01:36:00;4.25;;;2.03;;
45466;SDS011;31212;49.734;8.490;2022-11-18T01:38:27;3.67;;;2.13;;
45466;SDS011;31212;49.734;8.490;2022-11-18T01:40:54;6.68;;;2.28;;
45466;SDS011;31212;49.734;8.490;2022-11-18T01:43:21;1.80;;;1.52;;
45466;SDS011;31212;49.734;8.490;2022-11-18T01:45:49;1.95;;;1.50;;
45466;SDS011;31212;49.734;8.490;2022-11-18T01:48:19;2.75;;;1.58;;
45466;SDS011;31212;49.734;8.490;2022-11-18T01:50:49;3.58;;;2.22;;
45466;SDS011;31212;49.734;8.490;2022-11-18T01:53:20;1.60;;;1.33;;
45466;SDS011;31212;49.734;8.490;2022-11-18T01:55:52;4.18;;;3.20;;
45466;SDS011;31212;49.734;8.490;2022-11-18T01:58:22;6.22;;;2.58;;
45466;SDS011;31212;49.734;8.490;2022-11-18T02:00:52;4.30;;;1.65;;
45466;SDS011;31212;49.734;8.490;2022-11-18T02:03:20;3.40;;;2.17;;
45466;SDS011;31212;49.734;8.490;2022-11-18T02:05:48;2.75;;;1.92;;
45466;SDS011;31212;49.734;8.490;2022-11-18T02:08:16;3.10;;;1.70;;
45466;SDS011;31212;49.734;8.490;2022-11-18T02:10:44;4.65;;;1.73;;
45466;SDS011;31212;49.734;8.490;2022-11-18T02:13:12;6.82;;;1.55;;
45466;SDS011;31212;49.734;8.490;2022-11-18T02:15:44;3.00;;;1.98;;
45466;SDS011;31212;49.734;8.490;2022-11-18T02:18:18;4.55;;;2.22;;
45466;SDS011;31212;49.734;8.490;2022-11-18T02:20:54;3.63;;;1.88;;
45466;SDS011;31212;49.734;8.490;2022-11-18T02:23:39;2.88;;;1.73;;
45466;SDS011;31212;49.734;8.490;2022-11-18T02:29:28;7.65;;;2.70;;
45466;SDS011;31212;49.734;8.490;2022-11-18T02:32:03;11.68;;;2.40;;
45466;SDS011;31212;49.734;8.490;2022-11-18T02:34:38;9.07;;;2.10;;
45466;SDS011;31212;49.734;8.490;2022-11-18T02:37:14;3.60;;;1.90;;
45466;SDS011;31212;49.734;8.490;2022-11-18T02:39:47;3.38;;;2.22;;
45466;SDS011;31212;49.734;8.490;2022-11-18T02:42:19;2.67;;;1.67;;
45466;SDS011;31212;49.734;8.490;2022-11-18T02:44:51;2.92;;;2.05;;
45466;SDS011;31212;49.734;8.490;2022-11-18T02:47:22;2.78;;;2.25;;
45466;SDS011;31212;49.734;8.490;2022-11-18T02:49:53;4.45;;;2.60;;
45466;SDS011;31212;49.734;8.490;2022-11-18T02:52:23;2.50;;;1.70;;
45466;SDS011;31212;49.734;8.490;2022-11-18T02:54:53;2.35;;;1.85;;
45466;SDS011;31212;49.734;8.490;2022-11-18T02:57:21;4.20;;;1.88;;
45466;SDS011;31212;49.734;8.490;2022-11-18T02:59:51;3.20;;;2.20;;
45466;SDS011;31212;49.734;8.490;2022-11-18T03:02:18;5.78;;;2.10;;
45466;SDS011;31212;49.734;8.490;2022-11-18T03:04:46;2.95;;;2.15;;
45466;SDS011;31212;49.734;8.490;2022-11-18T03:07:16;4.63;;;2.45;;
45466;SDS011;31212;49.734;8.490;2022-11-18T03:09:47;2.60;;;1.85;;
45466;SDS011;31212;49.734;8.490;2022-11-18T03:12:18;3.55;;;1.95;;
45466;SDS011;31212;49.734;8.490;2022-11-18T03:14:58;4.47;;;2.08;;
45466;SDS011;31212;49.734;8.490;2022-11-18T03:17:34;10.27;;;3.00;;
45466;SDS011;31212;49.734;8.490;2022-11-18T03:20:12;5.13;;;2.13;;
45466;SDS011;31212;49.734;8.490;2022-11-18T03:22:47;4.45;;;2.70;;
45466;SDS011;31212;49.734;8.490;2022-11-18T03:27:49;6.00;;;3.25;;
45466;SDS011;31212;49.734;8.490;2022-11-18T03:30:21;3.47;;;2.45;;
45466;SDS011;31212;49.734;8.490;2022-11-18T03:32:50;3.38;;;2.50;;
45466;SDS011;31212;49.734;8.490;2022-11-18T03:35:22;3.10;;;2.00;;
45466;SDS011;31212;49.734;8.490;2022-11-18T03:37:52;3.40;;;2.22;;
45466;SDS011;31212;49.734;8.490;2022-11-18T03:40:25;2.35;;;2.08;;
45466;SDS011;31212;49.734;8.490;2022-11-18T03:42:55;4.30;;;2.50;;
45466;SDS011;31212;49.734;8.490;2022-11-18T03:45:27;6.35;;;2.33;;
45466;SDS011;31212;49.734;8.490;2022-11-18T03:48:00;3.40;;;2.20;;
45466;SDS011;31212;49.734;8.490;2022-11-18T03:50:33;5.13;;;2.75;;
45466;SDS011;31212;49.734;8.490;2022-11-18T03:53:03;5.43;;;2.65;;
45466;SDS011;31212;49.734;8.490;2022-11-18T03:55:33;4.57;;;3.00;;
45466;SDS011;31212;49.734;8.490;2022-11-18T03:58:06;3.10;;;2.13;;
45466;SDS011;31212;49.734;8.490;2022-11-18T04:03:07;4.53;;;2.65;;
45466;SDS011;31212;49.734;8.490;2022-11-18T04:05:35;4.85;;;3.35;;
45466;SDS011;31212;49.734;8.490;2022-11-18T04:08:05;5.53;;;2.35;;
45466;SDS011;31212;49.734;8.490;2022-11-18T04:10:36;7.85;;;3.15;;
45466;SDS011;31212;49.734;8.490;2022-11-18T04:13:07;5.47;;;2.78;;
45466;SDS011;31212;49.734;8.490;2022-11-18T04:15:40;14.95;;;2.35;;
45466;SDS011;31212;49.734;8.490;2022-11-18T04:18:08;5.90;;;2.92;;
45466;SDS011;31212;49.734;8.490;2022-11-18T04:20:35;4.53;;;2.83;;
45466;SDS011;31212;49.734;8.490;2022-11-18T04:23:02;6.63;;;2.85;;
45466;SDS011;31212;49.734;8.490;2022-11-18T04:25:30;6.90;;;2.25;;
45466;SDS011;31212;49.734;8.490;2022-11-18T04:27:56;11.15;;;3.28;;
45466;SDS011;31212;49.734;8.490;2022-11-18T04:30:23;7.40;;;3.13;;
45466;SDS011;31212;49.734;8.490;2022-11-18T04:32:51;6.50;;;3.03;;
45466;SDS011;31212;49.734;8.490;2022-11-18T04:35:17;5.40;;;3.47;;
45466;SDS011;31212;49.734;8.490;2022-11-18T04:37:44;6.45;;;3.70;;
45466;SDS011;31212;49.734;8.490;2022-11-18T04:40:11;6.07;;;3.33;;
45466;SDS011;31212;49.734;8.490;2022-11-18T04:42:38;6.05;;;2.90;;
45466;SDS011;31212;49.734;8.490;2022-11-18T04:45:04;9.65;;;3.05;;
45466;SDS011;31212;49.734;8.490;2022-11-18T04:47:32;8.30;;;2.70;;
45466;SDS011;31212;49.734;8.490;2022-11-18T04:50:00;4.15;;;2.28;;
45466;SDS011;31212;49.734;8.490;2022-11-18T04:52:26;4.55;;;3.17;;
45466;SDS011;31212;49.734;8.490;2022-11-18T04:54:53;6.70;;;3.35;;
45466;SDS011;31212;49.734;8.490;2022-11-18T04:57:20;5.95;;;2.92;;
45466;SDS011;31212;49.734;8.490;2022-11-18T04:59:46;4.10;;;2.65;;
45466;SDS011;31212;49.734;8.490;2022-11-18T05:02:13;7.75;;;4.07;;
45466;SDS011;31212;49.734;8.490;2022-11-18T05:04:39;7.47;;;3.95;;
45466;SDS011;31212;49.734;8.490;2022-11-18T05:07:11;11.15;;;4.97;;
45466;SDS011;31212;49.734;8.490;2022-11-18T05:09:39;6.07;;;3.88;;
45466;SDS011;31212;49.734;8.490;2022-11-18T05:12:08;4.80;;;4.15;;
45466;SDS011;31212;49.734;8.490;2022-11-18T05:14:54;6.57;;;4.13;;
45466;SDS011;31212;49.734;8.490;2022-11-18T05:17:20;6.50;;;3.50;;
45466;SDS011;31212;49.734;8.490;2022-11-18T05:19:47;10.43;;;5.22;;
45466;SDS011;31212;49.734;8.490;2022-11-18T05:22:15;7.60;;;4.18;;
45466;SDS011;31212;49.734;8.490;2022-11-18T05:24:41;8.80;;;3.88;;
45466;SDS011;31212;49.734;8.490;2022-11-18T05:27:08;4.70;;;3.42;;
45466;SDS011;31212;49.734;8.490;2022-11-18T05:29:34;8.27;;;4.18;;
45466;SDS011;31212;49.734;8.490;2022-11-18T05:32:01;8.25;;;4.03;;
45466;SDS011;31212;49.734;8.490;2022-11-18T05:34:27;7.70;;;3.85;;
45466;SDS011;31212;49.734;8.490;2022-11-18T05:36:54;8.00;;;3.70;;
45466;SDS011;31212;49.734;8.490;2022-11-18T05:39:22;4.82;;;2.95;;
45466;SDS011;31212;49.734;8.490;2022-11-18T05:41:48;8.63;;;3.80;;
45466;SDS011;31212;49.734;8.490;2022-11-18T05:44:33;10.02;;;5.03;;
45466;SDS011;31212;49.734;8.490;2022-11-18T05:46:59;8.18;;;4.47;;
45466;SDS011;31212;49.734;8.490;2022-11-18T05:49:26;14.70;;;5.22;;
45466;SDS011;31212;49.734;8.490;2022-11-18T05:51:52;8.05;;;4.40;;
45466;SDS011;31212;49.734;8.490;2022-11-18T05:54:19;14.52;;;5.80;;
45466;SDS011;31212;49.734;8.490;2022-11-18T05:56:47;7.90;;;4.35;;
45466;SDS011;31212;49.734;8.490;2022-11-18T05:59:14;9.35;;;5.38;;
45466;SDS011;31212;49.734;8.490;2022-11-18T06:01:42;8.50;;;4.95;;
45466;SDS011;31212;49.734;8.490;2022-11-18T06:04:13;16.35;;;5.07;;
45466;SDS011;31212;49.734;8.490;2022-11-18T06:06:41;8.73;;;4.50;;
45466;SDS011;31212;49.734;8.490;2022-11-18T06:09:10;7.60;;;3.80;;
45466;SDS011;31212;49.734;8.490;2022-11-18T06:11:40;4.88;;;3.17;;
45466;SDS011;31212;49.734;8.490;2022-11-18T06:14:10;13.70;;;4.25;;
45466;SDS011;31212;49.734;8.490;2022-11-18T06:16:43;4.65;;;2.38;;
45466;SDS011;31212;49.734;8.490;2022-11-18T06:19:13;2.65;;;1.50;;
45466;SDS011;31212;49.734;8.490;2022-11-18T06:21:41;1.52;;;1.20;;
45466;SDS011;31212;49.734;8.490;2022-11-18T06:24:08;1.52;;;1.15;;
45466;SDS011;31212;49.734;8.490;2022-11-18T06:26:35;4.45;;;2.03;;
45466;SDS011;31212;49.734;8.490;2022-11-18T06:29:04;3.92;;;1.45;;
45466;SDS011;31212;49.734;8.490;2022-11-18T06:31:33;2.28;;;1.08;;
45466;SDS011;31212;49.734;8.490;2022-11-18T06:34:00;2.78;;;1.55;;
45466;SDS011;31212;49.734;8.490;2022-11-18T06:36:26;1.58;;;1.15;;
45466;SDS011;31212;49.734;8.490;2022-11-18T06:38:53;0.70;;;0.57;;
45466;SDS011;31212;49.734;8.490;2022-11-18T06:41:19;2.03;;;1.33;;
45466;SDS011;31212;49.734;8.490;2022-11-18T06:43:46;2.00;;;1.65;;
45466;SDS011;31212;49.734;8.490;2022-11-18T06:46:14;3.88;;;1.45;;
45466;SDS011;31212;49.734;8.490;2022-11-18T06:48:59;3.15;;;1.33;;
45466;SDS011;31212;49.734;8.490;2022-11-18T06:51:27;1.85;;;1.30;;
45466;SDS011;31212;49.734;8.490;2022-11-18T06:53:54;1.58;;;1.10;;
45466;SDS011;31212;49.734;8.490;2022-11-18T06:56:21;5.97;;;2.53;;
45466;SDS011;31212;49.734;8.490;2022-11-18T06:58:51;1.13;;;0.93;;
45466;SDS011;31212;49.734;8.490;2022-11-18T07:01:21;2.63;;;2.35;;
45466;SDS011;31212;49.734;8.490;2022-11-18T07:03:49;2.28;;;1.50;;
45466;SDS011;31212;49.734;8.490;2022-11-18T07:06:16;1.88;;;1.67;;
45466;SDS011;31212;49.734;8.490;2022-11-18T07:08:45;1.90;;;1.75;;
45466;SDS011;31212;49.734;8.490;2022-11-18T07:11:12;5.38;;;0.95;;
45466;SDS011;31212;49.734;8.490;2022-11-18T07:13:40;2.28;;;1.40;;
45466;SDS011;31212;49.734;8.490;2022-11-18T07:16:07;1.92;;;1.42;;
45466;SDS011;31212;49.734;8.490;2022-11-18T07:18:37;4.05;;;1.17;;
45466;SDS011;31212;49.734;8.490;2022-11-18T07:21:07;1.17;;;0.85;;
45466;SDS011;31212;49.734;8.490;2022-11-18T07:23:34;0.82;;;0.77;;
45466;SDS011;31212;49.734;8.490;2022-11-18T07:26:01;0.80;;;0.70;;
45466;SDS011;31212;49.734;8.490;2022-11-18T07:28:28;0.80;;;0.70;;
45466;SDS011;31212;49.734;8.490;2022-11-18T07:30:59;2.58;;;1.13;;
45466;SDS011;31212;49.734;8.490;2022-11-18T07:33:26;0.65;;;0.55;;
45466;SDS011;31212;49.734;8.490;2022-11-18T07:35:54;1.15;;;0.93;;
45466;SDS011;31212;49.734;8.490;2022-11-18T07:38:21;0.80;;;0.70;;
45466;SDS011;31212;49.734;8.490;2022-11-18T07:40:47;1.25;;;0.88;;
45466;SDS011;31212;49.734;8.490;2022-11-18T07:43:14;1.75;;;0.82;;
45466;SDS011;31212;49.734;8.490;2022-11-18T07:45:40;1.05;;;0.80;;
45466;SDS011;31212;49.734;8.490;2022-11-18T07:48:07;3.33;;;1.40;;
45466;SDS011;31212;49.734;8.490;2022-11-18T07:50:33;1.40;;;0.90;;
45466;SDS011;31212;49.734;8.490;2022-11-18T07:53:01;1.17;;;0.55;;
45466;SDS011;31212;49.734;8.490;2022-11-18T07:55:28;1.25;;;0.63;;
45466;SDS011;31212;49.734;8.490;2022-11-18T07:57:54;1.42;;;0.73;;
45466;SDS011;31212;49.734;8.490;2022-11-18T08:00:21;0.90;;;0.75;;
45466;SDS011;31212;49.734;8.490;2022-11-18T08:02:48;1.48;;;0.88;;
45466;SDS011;31212;49.734;8.490;2022-11-18T08:05:15;0.80;;;0.50;;
45466;SDS011;31212;49.734;8.490;2022-11-18T08:07:42;0.85;;;0.60;;
45466;SDS011;31212;49.734;8.490;2022-11-18T08:10:10;0.88;;;0.40;;
45466;SDS011;31212;49.734;8.490;2022-11-18T08:12:36;1.50;;;0.60;;
45466;SDS011;31212;49.734;8.490;2022-11-18T08:15:04;0.82;;;0.65;;
45466;SDS011;31212;49.734;8.490;2022-11-18T08:17:31;0.80;;;0.52;;
45466;SDS011;31212;49.734;8.490;2022-11-18T08:19:58;2.97;;;0.52;;
45466;SDS011;31212;49.734;8.490;2022-11-18T08:22:25;0.47;;;0.47;;
45466;SDS011;31212;49.734;8.490;2022-11-18T08:24:51;0.45;;;0.40;;
45466;SDS011;31212;49.734;8.490;2022-11-18T08:27:19;0.30;;;0.30;;
45466;SDS011;31212;49.734;8.490;2022-11-18T08:29:46;0.40;;;0.40;;
45466;SDS011;31212;49.734;8.490;2022-11-18T08:32:12;0.57;;;0.50;;
45466;SDS011;31212;49.734;8.490;2022-11-18T08:34:39;3.88;;;0.95;;
45466;SDS011;31212;49.734;8.490;2022-11-18T08:37:05;1.73;;;0.90;;
45466;SDS011;31212;49.734;8.490;2022-11-18T08:39:32;1.02;;;0.90;;
45466;SDS011;31212;49.734;8.490;2022-11-18T08:41:58;0.55;;;0.55;;
45466;SDS011;31212;49.734;8.490;2022-11-18T08:44:26;1.40;;;0.93;;
45466;SDS011;31212;49.734;8.490;2022-11-18T08:46:52;0.43;;;0.20;;
45466;SDS011;31212;49.734;8.490;2022-11-18T08:49:19;0.17;;;0.17;;
45466;SDS011;31212;49.734;8.490;2022-11-18T08:51:45;1.30;;;0.63;;
45466;SDS011;31212;49.734;8.490;2022-11-18T08:54:12;3.70;;;2.13;;
45466;SDS011;31212;49.734;8.490;2022-11-18T08:56:38;1.50;;;0.75;;
45466;SDS011;31212;49.734;8.490;2022-11-18T08:59:05;1.10;;;0.90;;
45466;SDS011;31212;49.734;8.490;2022-11-18T09:01:34;1.83;;;0.60;;
45466;SDS011;31212;49.734;8.490;2022-11-18T09:04:01;1.02;;;0.88;;
45466;SDS011;31212;49.734;8.490;2022-11-18T09:06:28;1.80;;;1.10;;
45466;SDS011;31212;49.734;8.490;2022-11-18T09:08:55;1.27;;;0.75;;
45466;SDS011;31212;49.734;8.490;2022-11-18T09:11:22;4.50;;;1.00;;
45466;SDS011;31212;49.734;8.490;2022-11-18T09:13:50;2.00;;;1.15;;
45466;SDS011;31212;49.734;8.490;2022-11-18T09:16:18;6.93;;;2.58;;
45466;SDS011;31212;49.734;8.490;2022-11-18T09:18:48;3.13;;;2.30;;
45466;SDS011;31212;49.734;8.490;2022-11-18T09:21:16;5.28;;;2.70;;
45466;SDS011;31212;49.734;8.490;2022-11-18T09:23:43;4.70;;;2.08;;
45466;SDS011;31212;49.734;8.490;2022-11-18T09:26:11;2.35;;;1.25;;
45466;SDS011;31212;49.734;8.490;2022-11-18T09:28:38;1.70;;;1.17;;
45466;SDS011;31212;49.734;8.490;2022-11-18T09:31:05;1.92;;;0.80;;
45466;SDS011;31212;49.734;8.490;2022-11-18T09:33:33;1.52;;;1.30;;
45466;SDS011;31212;49.734;8.490;2022-11-18T09:36:01;3.88;;;0.98;;
45466;SDS011;31212;49.734;8.490;2022-11-18T09:38:28;2.80;;;1.27;;
45466;SDS011;31212;49.734;8.490;2022-11-18T09:40:58;5.38;;;2.63;;
45466;SDS011;31212;49.734;8.490;2022-11-18T09:43:34;3.38;;;1.20;;
45466;SDS011;31212;49.734;8.490;2022-11-18T09:46:19;1.52;;;0.70;;
45466;SDS011;31212;49.734;8.490;2022-11-18T09:48:51;1.80;;;0.95;;
45466;SDS011;31212;49.734;8.490;2022-11-18T09:51:37;3.30;;;1.15;;
45466;SDS011;31212;49.734;8.490;2022-11-18T09:54:07;1.35;;;1.17;;
45466;SDS011;31212;49.734;8.490;2022-11-18T09:56:36;1.90;;;1.13;;
45466;SDS011;31212;49.734;8.490;2022-11-18T09:59:04;2.47;;;1.17;;
45466;SDS011;31212;49.734;8.490;2022-11-18T10:01:31;2.42;;;1.33;;
45466;SDS011;31212;49.734;8.490;2022-11-18T10:03:57;1.38;;;1.17;;
45466;SDS011;31212;49.734;8.490;2022-11-18T10:06:25;2.20;;;1.08;;
45466;SDS011;31212;49.734;8.490;2022-11-18T10:08:58;1.52;;;0.88;;
45466;SDS011;31212;49.734;8.490;2022-11-18T10:11:37;3.40;;;1.67;;
45466;SDS011;31212;49.734;8.490;2022-11-18T10:14:18;2.67;;;1.45;;
45466;SDS011;31212;49.734;8.490;2022-11-18T10:16:56;2.08;;;1.20;;
45466;SDS011;31212;49.734;8.490;2022-11-18T10:19:31;3.53;;;1.60;;
45466;SDS011;31212;49.734;8.490;2022-11-18T10:24:41;3.25;;;1.73;;
45466;SDS011;31212;49.734;8.490;2022-11-18T10:27:14;2.53;;;1.55;;
45466;SDS011;31212;49.734;8.490;2022-11-18T10:29:42;4.82;;;1.75;;
45466;SDS011;31212;49.734;8.490;2022-11-18T10:32:10;2.95;;;1.83;;
45466;SDS011;31212;49.734;8.490;2022-11-18T10:34:45;3.22;;;1.73;;
45466;SDS011;31212;49.734;8.490;2022-11-18T10:37:20;3.42;;;1.95;;
45466;SDS011;31212;49.734;8.490;2022-11-18T10:39:50;2.53;;;1.63;;
45466;SDS011;31212;49.734;8.490;2022-11-18T10:42:19;2.72;;;1.90;;
45466;SDS011;31212;49.734;8.490;2022-11-18T10:44:52;6.18;;;2.05;;
45466;SDS011;31212;49.734;8.490;2022-11-18T10:47:26;2.08;;;1.88;;
45466;SDS011;31212;49.734;8.490;2022-11-18T10:49:56;2.25;;;1.48;;
45466;SDS011;31212;49.734;8.490;2022-11-18T10:52:24;2.55;;;1.92;;
45466;SDS011;31212;49.734;8.490;2022-11-18T10:55:07;4.78;;;2.00;;
45466;SDS011;31212;49.734;8.490;2022-11-18T10:57:49;4.82;;;2.83;;
45466;SDS011;31212;49.734;8.490;2022-11-18T11:00:38;6.82;;;2.90;;
45466;SDS011;31212;49.734;8.490;2022-11-18T11:03:14;2.80;;;1.85;;
45466;SDS011;31212;49.734;8.490;2022-11-18T11:08:53;9.75;;;2.67;;
45466;SDS011;31212;49.734;8.490;2022-11-18T11:11:24;3.83;;;2.80;;
45466;SDS011;31212;49.734;8.490;2022-11-18T11:14:13;7.82;;;3.70;;
45466;SDS011;31212;49.734;8.490;2022-11-18T11:16:46;7.18;;;4.20;;
45466;SDS011;31212;49.734;8.490;2022-11-18T11:19:18;7.18;;;2.95;;
45466;SDS011;31212;49.734;8.490;2022-11-18T11:21:48;5.38;;;3.40;;
45466;SDS011;31212;49.734;8.490;2022-11-18T11:24:16;8.43;;;3.75;;
45466;SDS011;31212;49.734;8.490;2022-11-18T11:26:51;6.38;;;4.05;;
45466;SDS011;31212;49.734;8.490;2022-11-18T11:32:25;6.28;;;3.53;;
45466;SDS011;31212;49.734;8.490;2022-11-18T11:34:59;8.60;;;3.67;;
45466;SDS011;31212;49.734;8.490;2022-11-18T11:37:35;7.60;;;4.05;;
45466;SDS011;31212;49.734;8.490;2022-11-18T11:40:16;5.53;;;2.50;;
45466;SDS011;31212;49.734;8.490;2022-11-18T11:42:52;5.07;;;2.60;;
45466;SDS011;31212;49.734;8.490;2022-11-18T11:45:29;6.63;;;2.85;;
45466;SDS011;31212;49.734;8.490;2022-11-18T11:48:12;3.67;;;2.58;;
45466;SDS011;31212;49.734;8.490;2022-11-18T11:50:49;6.55;;;3.47;;
45466;SDS011;31212;49.734;8.490;2022-11-18T11:53:22;4.10;;;2.55;;
45466;SDS011;31212;49.734;8.490;2022-11-18T11:55:58;4.65;;;2.35;;
45466;SDS011;31212;49.734;8.490;2022-11-18T11:58:41;5.45;;;3.35;;
45466;SDS011;31212;49.734;8.490;2022-11-18T12:01:25;4.53;;;2.80;;
45466;SDS011;31212;49.734;8.490;2022-11-18T12:03:57;3.70;;;2.47;;
45466;SDS011;31212;49.734;8.490;2022-11-18T12:06:35;2.80;;;1.92;;
45466;SDS011;31212;49.734;8.490;2022-11-18T12:09:02;4.75;;;2.17;;
45466;SDS011;31212;49.734;8.490;2022-11-18T12:11:39;3.33;;;2.45;;
45466;SDS011;31212;49.734;8.490;2022-11-18T12:14:11;8.20;;;2.35;;
45466;SDS011;31212;49.734;8.490;2022-11-18T12:16:49;5.57;;;2.80;;
45466;SDS011;31212;49.734;8.490;2022-11-18T12:19:20;2.60;;;2.10;;
45466;SDS011;31212;49.734;8.490;2022-11-18T12:21:58;2.17;;;1.58;;
45466;SDS011;31212;49.734;8.490;2022-11-18T12:24:33;1.80;;;1.52;;
45466;SDS011;31212;49.734;8.490;2022-11-18T12:27:02;3.30;;;2.60;;
45466;SDS011;31212;49.734;8.490;2022-11-18T12:29:37;6.88;;;2.90;;
45466;SDS011;31212;49.734;8.490;2022-11-18T12:32:23;3.17;;;1.98;;
45466;SDS011;31212;49.734;8.490;2022-11-18T12:34:55;8.55;;;2.25;;
45466;SDS011;31212;49.734;8.490;2022-11-18T12:37:38;9.90;;;4.57;;
45466;SDS011;31212;49.734;8.490;2022-11-18T12:40:10;9.80;;;4.25;;
45466;SDS011;31212;49.734;8.490;2022-11-18T12:42:52;2.35;;;1.98;;
45466;SDS011;31212;49.734;8.490;2022-11-18T12:45:48;3.08;;;1.83;;
45466;SDS011;31212;49.734;8.490;2022-11-18T12:48:30;2.67;;;1.60;;
45466;SDS011;31212;49.734;8.490;2022-11-18T12:51:39;0.40;;;0.35;;
45466;SDS011;31212;49.734;8.490;2022-11-18T12:54:14;0.70;;;0.50;;
45466;SDS011;31212;49.734;8.490;2022-11-18T12:56:48;5.00;;;0.73;;
45466;SDS011;31212;49.734;8.490;2022-11-18T12:59:15;1.85;;;1.10;;
45466;SDS011;31212;49.734;8.490;2022-11-18T13:01:43;1.48;;;0.88;;
45466;SDS011;31212;49.734;8.490;2022-11-18T13:04:11;0.63;;;0.57;;
45466;SDS011;31212;49.734;8.490;2022-11-18T13:06:39;1.00;;;0.85;;
45466;SDS011;31212;49.734;8.490;2022-11-18T13:09:11;1.38;;;0.77;;
45466;SDS011;31212;49.734;8.490;2022-11-18T13:11:42;1.00;;;0.60;;
45466;SDS011;31212;49.734;8.490;2022-11-18T13:14:13;1.27;;;0.73;;
45466;SDS011;31212;49.734;8.490;2022-11-18T13:17:00;1.20;;;0.90;;
45466;SDS011;31212;49.734;8.490;2022-11-18T13:19:52;0.57;;;0.57;;
45466;SDS011;31212;49.734;8.490;2022-11-18T13:22:21;1.17;;;1.05;;
45466;SDS011;31212;49.734;8.490;2022-11-18T13:25:18;0.52;;;0.40;;
45466;SDS011;31212;49.734;8.490;2022-11-18T13:27:48;1.40;;;0.80;;
45466;SDS011;31212;49.734;8.490;2022-11-18T13:30:22;0.57;;;0.40;;
45466;SDS011;31212;49.734;8.490;2022-11-18T13:32:51;0.77;;;0.45;;
45466;SDS011;31212;49.734;8.490;2022-11-18T13:35:23;0.55;;;0.52;;
45466;SDS011;31212;49.734;8.490;2022-11-18T13:37:51;1.58;;;0.90;;
45466;SDS011;31212;49.734;8.490;2022-11-18T13:40:21;1.88;;;1.10;;
45466;SDS011;31212;49.734;8.490;2022-11-18T13:42:49;1.10;;;0.77;;
45466;SDS011;31212;49.734;8.490;2022-11-18T13:45:16;0.82;;;0.77;;
45466;SDS011;31212;49.734;8.490;2022-11-18T13:47:44;2.28;;;1.33;;
45466;SDS011;31212;49.734;8.490;2022-11-18T13:50:16;7.53;;;2.67;;
45466;SDS011;31212;49.734;8.490;2022-11-18T13:52:57;24.48;;;8.95;;
45466;SDS011;31212;49.734;8.490;2022-11-18T13:55:31;13.27;;;4.90;;
45466;SDS011;31212;49.734;8.490;2022-11-18T13:58:02;9.10;;;3.45;;
45466;SDS011;31212;49.734;8.490;2022-11-18T14:00:33;3.80;;;1.83;;
45466;SDS011;31212;49.734;8.490;2022-11-18T14:03:01;6.65;;;2.00;;
45466;SDS011;31212;49.734;8.490;2022-11-18T14:05:32;2.75;;;1.45;;
45466;SDS011;31212;49.734;8.490;2022-11-18T14:08:00;3.72;;;1.50;;
45466;SDS011;31212;49.734;8.490;2022-11-18T14:10:33;2.70;;;1.67;;
45466;SDS011;31212;49.734;8.490;2022-11-18T14:13:13;3.55;;;1.90;;
45466;SDS011;31212;49.734;8.490;2022-11-18T14:15:43;2.97;;;1.73;;
45466;SDS011;31212;49.734;8.490;2022-11-18T14:18:15;2.90;;;1.92;;
45466;SDS011;31212;49.734;8.490;2022-11-18T14:20:50;5.93;;;2.45;;
45466;SDS011;31212;49.734;8.490;2022-11-18T14:25:47;8.60;;;3.53;;
45466;SDS011;31212;49.734;8.490;2022-11-18T14:28:18;2.92;;;1.90;;
45466;SDS011;31212;49.734;8.490;2022-11-18T14:31:01;1.65;;;1.08;;
45466;SDS011;31212;49.734;8.490;2022-11-18T14:33:31;0.50;;;0.50;;
45466;SDS011;31212;49.734;8.490;2022-11-18T14:36:00;0.50;;;0.50;;
45466;SDS011;31212;49.734;8.490;2022-11-18T14:38:40;1.67;;;0.77;;
45466;SDS011;31212;49.734;8.490;2022-11-18T14:41:09;3.15;;;0.95;;
45466;SDS011;31212;49.734;8.490;2022-11-18T14:43:37;0.52;;;0.52;;
45466;SDS011;31212;49.734;8.490;2022-11-18T14:46:04;1.70;;;0.73;;
45466;SDS011;31212;49.734;8.490;2022-11-18T14:48:36;0.95;;;0.77;;
45466;SDS011;31212;49.734;8.490;2022-11-18T14:51:04;3.70;;;1.00;;
45466;SDS011;31212;49.734;8.490;2022-11-18T14:53:31;0.82;;;0.68;;
45466;SDS011;31212;49.734;8.490;2022-11-18T14:55:57;3.63;;;1.58;;
45466;SDS011;31212;49.734;8.490;2022-11-18T14:58:25;3.10;;;1.80;;
45466;SDS011;31212;49.734;8.490;2022-11-18T15:00:51;3.70;;;2.00;;
45466;SDS011;31212;49.734;8.490;2022-11-18T15:03:18;2.10;;;0.70;;
45466;SDS011;31212;49.734;8.490;2022-11-18T15:05:44;9.82;;;5.38;;
45466;SDS011;31212;49.734;8.490;2022-11-18T15:08:12;4.70;;;2.50;;
45466;SDS011;31212;49.734;8.490;2022-11-18T15:10:40;3.80;;;2.58;;
45466;SDS011;31212;49.734;8.490;2022-11-18T15:13:07;0.90;;;0.90;;
45466;SDS011;31212;49.734;8.490;2022-11-18T15:15:33;0.80;;;0.80;;
45466;SDS011;31212;49.734;8.490;2022-11-18T15:18:00;2.45;;;0.70;;
45466;SDS011;31212;49.734;8.490;2022-11-18T15:20:26;2.15;;;1.55;;
45466;SDS011;31212;49.734;8.490;2022-11-18T15:22:53;3.53;;;2.30;;
45466;SDS011;31212;49.734;8.490;2022-11-18T15:25:21;2.72;;;1.58;;
45466;SDS011;31212;49.734;8.490;2022-11-18T15:27:47;2.13;;;1.35;;